sensor_id;sensor_type;location;lat;lon;timestamp;temperature;humidity
4757;DHT22;2392;52.578;13.426;2022-07-23T00:01:47;19.40;99.90
4757;DHT22;2392;52.578;13.426;2022-07-23T00:04:15;19.40;99.90
4757;DHT22;2392;52.578;13.426;2022-07-23T00:06:41;19.40;99.90
4757;DHT22;2392;52.578;13.426;2022-07-23T00:09:08;19.40;99.90
4757;DHT22;2392;52.578;13.426;2022-07-23T00:11:35;19.40;99.90
4757;DHT22;2392;52.578;13.426;2022-07-23T00:14:02;19.40;99.90
4757;DHT22;2392;52.578;13.426;2022-07-23T00:16:29;19.40;99.90
4757;DHT22;2392;52.578;13.426;2022-07-23T00:18:58;19.40;99.90
4757;DHT22;2392;52.578;13.426;2022-07-23T00:21:26;19.40;99.90
4757;DHT22;2392;52.578;13.426;2022-07-23T00:23:54;19.40;99.90
4757;DHT22;2392;52.578;13.426;2022-07-23T00:26:20;19.40;99.90
4757;DHT22;2392;52.578;13.426;2022-07-23T00:28:47;19.40;99.90
4757;DHT22;2392;52.578;13.426;2022-07-23T00:31:14;19.40;99.90
4757;DHT22;2392;52.578;13.426;2022-07-23T00:33:42;19.40;99.90
4757;DHT22;2392;52.578;13.426;2022-07-23T00:36:10;19.40;99.90
4757;DHT22;2392;52.578;13.426;2022-07-23T00:38:37;19.40;99.90
4757;DHT22;2392;52.578;13.426;2022-07-23T00:41:04;19.30;99.90
4757;DHT22;2392;52.578;13.426;2022-07-23T00:43:31;19.30;99.90
4757;DHT22;2392;52.578;13.426;2022-07-23T00:45:59;19.30;99.90
4757;DHT22;2392;52.578;13.426;2022-07-23T00:48:26;19.30;99.90
4757;DHT22;2392;52.578;13.426;2022-07-23T00:50:55;19.30;99.90
4757;DHT22;2392;52.578;13.426;2022-07-23T00:53:23;19.30;99.90
4757;DHT22;2392;52.578;13.426;2022-07-23T00:55:50;19.30;99.90
4757;DHT22;2392;52.578;13.426;2022-07-23T00:58:20;19.30;99.90
4757;DHT22;2392;52.578;13.426;2022-07-23T01:00:47;19.20;99.90
4757;DHT22;2392;52.578;13.426;2022-07-23T01:03:14;19.20;99.90
4757;DHT22;2392;52.578;13.426;2022-07-23T01:05:41;19.20;99.90
4757;DHT22;2392;52.578;13.426;2022-07-23T01:08:08;19.20;99.90
4757;DHT22;2392;52.578;13.426;2022-07-23T01:10:37;19.10;99.90
4757;DHT22;2392;52.578;13.426;2022-07-23T01:13:05;19.10;99.90
4757;DHT22;2392;52.578;13.426;2022-07-23T01:15:33;19.10;99.90
4757;DHT22;2392;52.578;13.426;2022-07-23T01:18:01;19.00;99.90
4757;DHT22;2392;52.578;13.426;2022-07-23T01:20:29;19.00;99.90
4757;DHT22;2392;52.578;13.426;2022-07-23T01:22:58;18.90;99.90
4757;DHT22;2392;52.578;13.426;2022-07-23T01:25:25;18.90;99.90
4757;DHT22;2392;52.578;13.426;2022-07-23T01:27:58;18.80;99.90
4757;DHT22;2392;52.578;13.426;2022-07-23T01:30:25;18.80;99.90
4757;DHT22;2392;52.578;13.426;2022-07-23T01:32:53;18.80;99.90
4757;DHT22;2392;52.578;13.426;2022-07-23T01:35:21;18.80;99.90
4757;DHT22;2392;52.578;13.426;2022-07-23T01:37:52;18.80;99.90
4757;DHT22;2392;52.578;13.426;2022-07-23T01:40:21;18.70;99.90
4757;DHT22;2392;52.578;13.426;2022-07-23T01:42:49;18.70;99.90
4757;DHT22;2392;52.578;13.426;2022-07-23T01:45:17;18.70;99.90
4757;DHT22;2392;52.578;13.426;2022-07-23T01:47:49;18.70;99.90
4757;DHT22;2392;52.578;13.426;2022-07-23T01:50:16;18.60;99.90
4757;DHT22;2392;52.578;13.426;2022-07-23T01:53:01;18.60;99.90
4757;DHT22;2392;52.578;13.426;2022-07-23T01:55:31;18.60;99.90
4757;DHT22;2392;52.578;13.426;2022-07-23T01:57:58;18.60;99.90
4757;DHT22;2392;52.578;13.426;2022-07-23T02:00:28;18.50;99.90
4757;DHT22;2392;52.578;13.426;2022-07-23T02:02:55;18.50;99.90
4757;DHT22;2392;52.578;13.426;2022-07-23T02:05:24;18.50;99.90
4757;DHT22;2392;52.578;13.426;2022-07-23T02:07:51;18.50;99.90
4757;DHT22;2392;52.578;13.426;2022-07-23T02:10:20;18.40;99.90
4757;DHT22;2392;52.578;13.426;2022-07-23T02:12:48;18.40;99.90
4757;DHT22;2392;52.578;13.426;2022-07-23T02:15:16;18.40;99.90
4757;DHT22;2392;52.578;13.426;2022-07-23T02:17:43;18.30;99.90
4757;DHT22;2392;52.578;13.426;2022-07-23T02:20:11;18.30;99.90
4757;DHT22;2392;52.578;13.426;2022-07-23T02:22:38;18.30;99.90
4757;DHT22;2392;52.578;13.426;2022-07-23T02:25:07;18.30;99.90
4757;DHT22;2392;52.578;13.426;2022-07-23T02:27:35;18.30;99.90
4757;DHT22;2392;52.578;13.426;2022-07-23T02:30:07;18.20;99.90
4757;DHT22;2392;52.578;13.426;2022-07-23T02:32:35;18.20;99.90
4757;DHT22;2392;52.578;13.426;2022-07-23T02:35:02;18.20;99.90
4757;DHT22;2392;52.578;13.426;2022-07-23T02:37:30;18.20;99.90
4757;DHT22;2392;52.578;13.426;2022-07-23T02:39:57;18.20;99.90
4757;DHT22;2392;52.578;13.426;2022-07-23T02:42:24;18.20;99.90
4757;DHT22;2392;52.578;13.426;2022-07-23T02:44:51;18.10;99.90
4757;DHT22;2392;52.578;13.426;2022-07-23T02:47:20;18.10;99.90
4757;DHT22;2392;52.578;13.426;2022-07-23T02:49:47;18.10;99.90
4757;DHT22;2392;52.578;13.426;2022-07-23T02:52:14;18.10;99.90
4757;DHT22;2392;52.578;13.426;2022-07-23T02:54:42;18.00;99.90
4757;DHT22;2392;52.578;13.426;2022-07-23T02:57:12;18.00;99.90
4757;DHT22;2392;52.578;13.426;2022-07-23T02:59:39;18.00;99.90
4757;DHT22;2392;52.578;13.426;2022-07-23T03:02:06;18.00;99.90
4757;DHT22;2392;52.578;13.426;2022-07-23T03:04:34;17.90;99.90
4757;DHT22;2392;52.578;13.426;2022-07-23T03:07:01;17.90;99.90
4757;DHT22;2392;52.578;13.426;2022-07-23T03:09:28;17.80;99.90
4757;DHT22;2392;52.578;13.426;2022-07-23T03:11:55;17.80;99.90
4757;DHT22;2392;52.578;13.426;2022-07-23T03:14:22;17.70;99.90
4757;DHT22;2392;52.578;13.426;2022-07-23T03:16:50;17.70;99.90
4757;DHT22;2392;52.578;13.426;2022-07-23T03:19:21;17.70;99.90
4757;DHT22;2392;52.578;13.426;2022-07-23T03:21:49;17.60;99.90
4757;DHT22;2392;52.578;13.426;2022-07-23T03:24:16;17.70;99.90
4757;DHT22;2392;52.578;13.426;2022-07-23T03:26:44;17.60;99.90
4757;DHT22;2392;52.578;13.426;2022-07-23T03:29:12;17.60;99.90
4757;DHT22;2392;52.578;13.426;2022-07-23T03:31:39;17.50;99.90
4757;DHT22;2392;52.578;13.426;2022-07-23T03:34:07;17.50;99.90
4757;DHT22;2392;52.578;13.426;2022-07-23T03:36:34;17.40;99.90
4757;DHT22;2392;52.578;13.426;2022-07-23T03:39:02;17.40;99.90
4757;DHT22;2392;52.578;13.426;2022-07-23T03:41:30;17.30;99.90
4757;DHT22;2392;52.578;13.426;2022-07-23T03:43:57;17.30;99.90
4757;DHT22;2392;52.578;13.426;2022-07-23T03:46:25;17.30;99.90
4757;DHT22;2392;52.578;13.426;2022-07-23T03:48:53;17.30;99.90
4757;DHT22;2392;52.578;13.426;2022-07-23T03:51:20;17.30;99.90
4757;DHT22;2392;52.578;13.426;2022-07-23T03:53:47;17.30;99.90
4757;DHT22;2392;52.578;13.426;2022-07-23T03:56:17;17.30;99.90
4757;DHT22;2392;52.578;13.426;2022-07-23T03:58:44;17.30;99.90
4757;DHT22;2392;52.578;13.426;2022-07-23T04:01:11;17.30;99.90
4757;DHT22;2392;52.578;13.426;2022-07-23T04:03:38;17.30;99.90
4757;DHT22;2392;52.578;13.426;2022-07-23T04:06:05;17.20;99.90
4757;DHT22;2392;52.578;13.426;2022-07-23T04:08:35;17.20;99.90
4757;DHT22;2392;52.578;13.426;2022-07-23T04:11:03;17.20;99.90
4757;DHT22;2392;52.578;13.426;2022-07-23T04:13:31;17.30;99.90
4757;DHT22;2392;52.578;13.426;2022-07-23T04:16:02;17.30;99.90
4757;DHT22;2392;52.578;13.426;2022-07-23T04:18:30;17.30;99.90
4757;DHT22;2392;52.578;13.426;2022-07-23T04:21:05;17.30;99.90
4757;DHT22;2392;52.578;13.426;2022-07-23T04:23:33;17.30;99.90
4757;DHT22;2392;52.578;13.426;2022-07-23T04:26:01;17.30;99.90
4757;DHT22;2392;52.578;13.426;2022-07-23T04:28:31;17.30;99.90
4757;DHT22;2392;52.578;13.426;2022-07-23T04:30:58;17.40;99.90
4757;DHT22;2392;52.578;13.426;2022-07-23T04:33:25;17.40;99.90
4757;DHT22;2392;52.578;13.426;2022-07-23T04:35:55;17.40;99.90
4757;DHT22;2392;52.578;13.426;2022-07-23T04:38:22;17.40;99.90
4757;DHT22;2392;52.578;13.426;2022-07-23T04:40:52;17.40;99.90
4757;DHT22;2392;52.578;13.426;2022-07-23T04:43:19;17.40;99.90
4757;DHT22;2392;52.578;13.426;2022-07-23T04:45:50;17.40;99.90
4757;DHT22;2392;52.578;13.426;2022-07-23T04:48:18;17.40;99.90
4757;DHT22;2392;52.578;13.426;2022-07-23T04:50:46;17.30;99.90
4757;DHT22;2392;52.578;13.426;2022-07-23T04:53:22;17.20;99.90
4757;DHT22;2392;52.578;13.426;2022-07-23T04:55:53;17.10;99.90
4757;DHT22;2392;52.578;13.426;2022-07-23T04:58:19;17.00;99.90
4757;DHT22;2392;52.578;13.426;2022-07-23T05:00:47;16.90;99.90
4757;DHT22;2392;52.578;13.426;2022-07-23T05:03:16;16.80;99.90
4757;DHT22;2392;52.578;13.426;2022-07-23T05:05:45;16.80;99.90
4757;DHT22;2392;52.578;13.426;2022-07-23T05:08:16;16.70;99.90
4757;DHT22;2392;52.578;13.426;2022-07-23T05:10:46;16.80;99.90
4757;DHT22;2392;52.578;13.426;2022-07-23T05:13:14;16.70;99.90
4757;DHT22;2392;52.578;13.426;2022-07-23T05:15:42;16.80;99.90
4757;DHT22;2392;52.578;13.426;2022-07-23T05:18:09;16.70;99.90
4757;DHT22;2392;52.578;13.426;2022-07-23T05:20:38;16.80;99.90
4757;DHT22;2392;52.578;13.426;2022-07-23T05:23:05;16.80;99.90
4757;DHT22;2392;52.578;13.426;2022-07-23T05:25:32;16.70;99.90
4757;DHT22;2392;52.578;13.426;2022-07-23T05:28:00;16.70;99.90
4757;DHT22;2392;52.578;13.426;2022-07-23T05:30:27;16.70;99.90
4757;DHT22;2392;52.578;13.426;2022-07-23T05:32:58;16.70;99.90
4757;DHT22;2392;52.578;13.426;2022-07-23T05:35:26;16.70;99.90
4757;DHT22;2392;52.578;13.426;2022-07-23T05:38:17;16.60;99.90
4757;DHT22;2392;52.578;13.426;2022-07-23T05:40:44;16.60;99.90
4757;DHT22;2392;52.578;13.426;2022-07-23T05:43:11;16.60;99.90
4757;DHT22;2392;52.578;13.426;2022-07-23T05:45:38;16.70;99.90
4757;DHT22;2392;52.578;13.426;2022-07-23T05:48:05;16.70;99.90
4757;DHT22;2392;52.578;13.426;2022-07-23T05:50:40;16.70;99.90
4757;DHT22;2392;52.578;13.426;2022-07-23T05:53:29;16.70;99.90
4757;DHT22;2392;52.578;13.426;2022-07-23T05:56:06;16.70;99.90
4757;DHT22;2392;52.578;13.426;2022-07-23T05:58:35;16.60;99.90
4757;DHT22;2392;52.578;13.426;2022-07-23T06:01:02;16.50;99.90
4757;DHT22;2392;52.578;13.426;2022-07-23T06:03:35;16.40;99.90
4757;DHT22;2392;52.578;13.426;2022-07-23T06:06:03;16.40;99.90
4757;DHT22;2392;52.578;13.426;2022-07-23T06:08:33;16.30;99.90
4757;DHT22;2392;52.578;13.426;2022-07-23T06:11:00;16.20;99.90
4757;DHT22;2392;52.578;13.426;2022-07-23T06:13:27;16.20;99.90
4757;DHT22;2392;52.578;13.426;2022-07-23T06:15:54;16.20;99.90
4757;DHT22;2392;52.578;13.426;2022-07-23T06:18:21;16.20;99.90
4757;DHT22;2392;52.578;13.426;2022-07-23T06:20:48;16.30;99.90
4757;DHT22;2392;52.578;13.426;2022-07-23T06:23:15;16.30;99.90
4757;DHT22;2392;52.578;13.426;2022-07-23T06:25:43;16.40;99.90
4757;DHT22;2392;52.578;13.426;2022-07-23T06:28:10;16.40;99.90
4757;DHT22;2392;52.578;13.426;2022-07-23T06:30:37;16.40;99.90
4757;DHT22;2392;52.578;13.426;2022-07-23T06:33:04;16.40;99.90
4757;DHT22;2392;52.578;13.426;2022-07-23T06:35:31;16.40;99.90
4757;DHT22;2392;52.578;13.426;2022-07-23T06:37:59;16.30;99.90
4757;DHT22;2392;52.578;13.426;2022-07-23T06:40:26;16.30;99.90
4757;DHT22;2392;52.578;13.426;2022-07-23T06:42:54;16.20;99.90
4757;DHT22;2392;52.578;13.426;2022-07-23T06:45:22;16.20;99.90
4757;DHT22;2392;52.578;13.426;2022-07-23T06:47:49;16.20;99.90
4757;DHT22;2392;52.578;13.426;2022-07-23T06:50:18;16.20;99.90
4757;DHT22;2392;52.578;13.426;2022-07-23T06:52:45;16.30;99.90
4757;DHT22;2392;52.578;13.426;2022-07-23T06:55:12;16.30;99.90
4757;DHT22;2392;52.578;13.426;2022-07-23T06:57:39;16.40;99.90
4757;DHT22;2392;52.578;13.426;2022-07-23T07:00:09;16.50;99.90
4757;DHT22;2392;52.578;13.426;2022-07-23T07:02:36;16.60;99.90
4757;DHT22;2392;52.578;13.426;2022-07-23T07:05:04;16.60;99.90
4757;DHT22;2392;52.578;13.426;2022-07-23T07:07:32;16.60;99.90
4757;DHT22;2392;52.578;13.426;2022-07-23T07:09:58;16.70;99.90
4757;DHT22;2392;52.578;13.426;2022-07-23T07:12:25;16.70;99.90
4757;DHT22;2392;52.578;13.426;2022-07-23T07:14:52;16.70;99.90
4757;DHT22;2392;52.578;13.426;2022-07-23T07:17:21;16.70;99.90
4757;DHT22;2392;52.578;13.426;2022-07-23T07:19:48;16.70;99.90
4757;DHT22;2392;52.578;13.426;2022-07-23T07:22:15;16.80;99.90
4757;DHT22;2392;52.578;13.426;2022-07-23T07:24:42;16.80;99.90
4757;DHT22;2392;52.578;13.426;2022-07-23T07:27:08;16.80;99.90
4757;DHT22;2392;52.578;13.426;2022-07-23T07:29:35;16.90;99.90
4757;DHT22;2392;52.578;13.426;2022-07-23T07:32:03;17.00;99.90
4757;DHT22;2392;52.578;13.426;2022-07-23T07:34:31;17.00;99.90
4757;DHT22;2392;52.578;13.426;2022-07-23T07:36:58;17.00;99.90
4757;DHT22;2392;52.578;13.426;2022-07-23T07:39:25;17.10;99.90
4757;DHT22;2392;52.578;13.426;2022-07-23T07:41:51;17.10;99.90
4757;DHT22;2392;52.578;13.426;2022-07-23T07:44:19;17.20;99.90
4757;DHT22;2392;52.578;13.426;2022-07-23T07:46:46;17.30;99.90
4757;DHT22;2392;52.578;13.426;2022-07-23T07:49:13;17.30;99.90
4757;DHT22;2392;52.578;13.426;2022-07-23T07:51:41;17.30;99.90
4757;DHT22;2392;52.578;13.426;2022-07-23T07:54:08;17.20;99.90
4757;DHT22;2392;52.578;13.426;2022-07-23T07:56:35;17.30;99.90
4757;DHT22;2392;52.578;13.426;2022-07-23T07:59:01;17.40;99.90
4757;DHT22;2392;52.578;13.426;2022-07-23T08:01:28;17.40;99.90
4757;DHT22;2392;52.578;13.426;2022-07-23T08:03:55;17.50;99.90
4757;DHT22;2392;52.578;13.426;2022-07-23T08:06:22;17.50;99.90
4757;DHT22;2392;52.578;13.426;2022-07-23T08:08:51;17.60;99.90
4757;DHT22;2392;52.578;13.426;2022-07-23T08:11:17;17.70;99.90
4757;DHT22;2392;52.578;13.426;2022-07-23T08:13:44;17.80;99.90
4757;DHT22;2392;52.578;13.426;2022-07-23T08:16:11;17.80;99.90
4757;DHT22;2392;52.578;13.426;2022-07-23T08:18:38;18.00;99.90
4757;DHT22;2392;52.578;13.426;2022-07-23T08:21:05;18.10;99.90
4757;DHT22;2392;52.578;13.426;2022-07-23T08:23:32;18.20;99.90
4757;DHT22;2392;52.578;13.426;2022-07-23T08:26:01;18.30;99.90
4757;DHT22;2392;52.578;13.426;2022-07-23T08:28:28;18.40;99.90
4757;DHT22;2392;52.578;13.426;2022-07-23T08:30:58;18.50;99.90
4757;DHT22;2392;52.578;13.426;2022-07-23T08:33:25;18.60;99.90
4757;DHT22;2392;52.578;13.426;2022-07-23T08:35:52;18.70;99.90
4757;DHT22;2392;52.578;13.426;2022-07-23T08:38:21;18.70;99.90
4757;DHT22;2392;52.578;13.426;2022-07-23T08:40:49;18.80;99.90
4757;DHT22;2392;52.578;13.426;2022-07-23T08:43:20;18.90;99.90
4757;DHT22;2392;52.578;13.426;2022-07-23T08:45:48;19.00;99.90
4757;DHT22;2392;52.578;13.426;2022-07-23T08:48:17;19.10;99.90
4757;DHT22;2392;52.578;13.426;2022-07-23T08:50:46;19.10;99.90
4757;DHT22;2392;52.578;13.426;2022-07-23T08:53:14;19.10;99.90
4757;DHT22;2392;52.578;13.426;2022-07-23T08:55:44;19.10;99.90
4757;DHT22;2392;52.578;13.426;2022-07-23T08:58:12;19.10;99.90
4757;DHT22;2392;52.578;13.426;2022-07-23T09:00:41;19.20;99.90
4757;DHT22;2392;52.578;13.426;2022-07-23T09:03:14;19.30;99.90
4757;DHT22;2392;52.578;13.426;2022-07-23T09:05:41;19.40;99.90
4757;DHT22;2392;52.578;13.426;2022-07-23T09:08:11;19.40;99.90
4757;DHT22;2392;52.578;13.426;2022-07-23T09:10:50;19.50;99.90
4757;DHT22;2392;52.578;13.426;2022-07-23T09:13:33;19.50;99.90
4757;DHT22;2392;52.578;13.426;2022-07-23T09:16:03;19.60;99.90
4757;DHT22;2392;52.578;13.426;2022-07-23T09:18:45;19.60;99.90
4757;DHT22;2392;52.578;13.426;2022-07-23T09:21:17;19.70;99.90
4757;DHT22;2392;52.578;13.426;2022-07-23T09:23:46;19.90;99.90
4757;DHT22;2392;52.578;13.426;2022-07-23T09:26:25;20.00;99.90
4757;DHT22;2392;52.578;13.426;2022-07-23T09:28:58;20.10;99.90
4757;DHT22;2392;52.578;13.426;2022-07-23T09:31:32;20.20;99.90
4757;DHT22;2392;52.578;13.426;2022-07-23T09:34:19;20.20;99.90
4757;DHT22;2392;52.578;13.426;2022-07-23T09:36:46;20.40;99.90
4757;DHT22;2392;52.578;13.426;2022-07-23T09:39:15;20.50;99.90
4757;DHT22;2392;52.578;13.426;2022-07-23T09:41:45;20.60;99.90
4757;DHT22;2392;52.578;13.426;2022-07-23T09:44:14;20.60;99.90
4757;DHT22;2392;52.578;13.426;2022-07-23T09:46:45;20.70;99.90
4757;DHT22;2392;52.578;13.426;2022-07-23T09:49:15;20.70;99.90
4757;DHT22;2392;52.578;13.426;2022-07-23T09:51:50;20.80;99.90
4757;DHT22;2392;52.578;13.426;2022-07-23T09:54:22;20.90;99.90
4757;DHT22;2392;52.578;13.426;2022-07-23T09:56:50;20.90;99.90
4757;DHT22;2392;52.578;13.426;2022-07-23T09:59:17;21.00;99.90
4757;DHT22;2392;52.578;13.426;2022-07-23T10:01:47;21.00;99.90
4757;DHT22;2392;52.578;13.426;2022-07-23T10:04:14;21.10;99.90
4757;DHT22;2392;52.578;13.426;2022-07-23T10:07:06;21.10;99.90
4757;DHT22;2392;52.578;13.426;2022-07-23T10:10:08;21.10;99.90
4757;DHT22;2392;52.578;13.426;2022-07-23T10:12:55;21.20;99.90
4757;DHT22;2392;52.578;13.426;2022-07-23T10:15:54;21.20;99.90
4757;DHT22;2392;52.578;13.426;2022-07-23T10:18:23;21.40;99.90
4757;DHT22;2392;52.578;13.426;2022-07-23T10:20:50;21.50;99.90
4757;DHT22;2392;52.578;13.426;2022-07-23T10:23:24;21.60;99.90
4757;DHT22;2392;52.578;13.426;2022-07-23T10:25:59;21.70;99.90
4757;DHT22;2392;52.578;13.426;2022-07-23T10:31:35;21.80;99.90
4757;DHT22;2392;52.578;13.426;2022-07-23T10:34:14;21.90;99.90
4757;DHT22;2392;52.578;13.426;2022-07-23T10:36:47;22.00;99.90
4757;DHT22;2392;52.578;13.426;2022-07-23T10:39:22;22.10;99.90
4757;DHT22;2392;52.578;13.426;2022-07-23T10:41:51;22.20;99.90
4757;DHT22;2392;52.578;13.426;2022-07-23T10:44:20;22.30;99.90
4757;DHT22;2392;52.578;13.426;2022-07-23T10:46:57;22.50;99.90
4757;DHT22;2392;52.578;13.426;2022-07-23T10:49:49;22.80;99.90
4757;DHT22;2392;52.578;13.426;2022-07-23T10:52:21;23.20;99.90
4757;DHT22;2392;52.578;13.426;2022-07-23T10:54:50;23.70;99.90
4757;DHT22;2392;52.578;13.426;2022-07-23T10:57:18;24.40;99.90
4757;DHT22;2392;52.578;13.426;2022-07-23T11:00:19;24.70;99.90
4757;DHT22;2392;52.578;13.426;2022-07-23T11:02:48;24.90;99.90
4757;DHT22;2392;52.578;13.426;2022-07-23T11:05:18;25.40;99.90
4757;DHT22;2392;52.578;13.426;2022-07-23T11:08:12;25.80;99.90
4757;DHT22;2392;52.578;13.426;2022-07-23T11:10:43;27.00;99.90
4757;DHT22;2392;52.578;13.426;2022-07-23T11:13:41;28.30;99.90
4757;DHT22;2392;52.578;13.426;2022-07-23T11:16:25;29.40;99.00
4757;DHT22;2392;52.578;13.426;2022-07-23T11:19:05;30.20;96.90
4757;DHT22;2392;52.578;13.426;2022-07-23T11:21:51;31.30;94.70
4757;DHT22;2392;52.578;13.426;2022-07-23T11:24:23;32.10;92.40
4757;DHT22;2392;52.578;13.426;2022-07-23T11:26:55;32.40;90.10
4757;DHT22;2392;52.578;13.426;2022-07-23T11:29:45;32.50;88.80
4757;DHT22;2392;52.578;13.426;2022-07-23T11:35:23;33.40;85.50
4757;DHT22;2392;52.578;13.426;2022-07-23T11:37:53;32.50;80.10
4757;DHT22;2392;52.578;13.426;2022-07-23T11:40:25;31.20;82.80
4757;DHT22;2392;52.578;13.426;2022-07-23T11:42:55;29.80;85.10
4757;DHT22;2392;52.578;13.426;2022-07-23T11:45:23;29.20;88.50
4757;DHT22;2392;52.578;13.426;2022-07-23T11:47:51;28.60;90.10
4757;DHT22;2392;52.578;13.426;2022-07-23T11:50:18;28.20;91.00
4757;DHT22;2392;52.578;13.426;2022-07-23T11:52:45;27.50;91.30
4757;DHT22;2392;52.578;13.426;2022-07-23T11:55:14;27.10;91.70
4757;DHT22;2392;52.578;13.426;2022-07-23T11:57:43;26.60;92.60
4757;DHT22;2392;52.578;13.426;2022-07-23T12:00:12;26.10;93.00
4757;DHT22;2392;52.578;13.426;2022-07-23T12:02:41;25.70;93.40
4757;DHT22;2392;52.578;13.426;2022-07-23T12:05:11;25.40;94.30
4757;DHT22;2392;52.578;13.426;2022-07-23T12:07:40;25.20;94.50
4757;DHT22;2392;52.578;13.426;2022-07-23T12:10:16;24.90;94.20
4757;DHT22;2392;52.578;13.426;2022-07-23T12:12:48;24.70;95.00
4757;DHT22;2392;52.578;13.426;2022-07-23T12:15:17;24.60;94.50
4757;DHT22;2392;52.578;13.426;2022-07-23T12:17:47;24.50;94.80
4757;DHT22;2392;52.578;13.426;2022-07-23T12:20:18;24.30;94.80
4757;DHT22;2392;52.578;13.426;2022-07-23T12:22:48;24.10;94.80
4757;DHT22;2392;52.578;13.426;2022-07-23T12:25:18;24.00;95.50
4757;DHT22;2392;52.578;13.426;2022-07-23T12:27:57;24.10;95.90
4757;DHT22;2392;52.578;13.426;2022-07-23T12:30:25;24.20;95.60
4757;DHT22;2392;52.578;13.426;2022-07-23T12:32:55;24.50;95.50
4757;DHT22;2392;52.578;13.426;2022-07-23T12:35:32;24.60;95.00
4757;DHT22;2392;52.578;13.426;2022-07-23T12:38:02;24.70;94.80
4757;DHT22;2392;52.578;13.426;2022-07-23T12:40:35;24.70;95.40
4757;DHT22;2392;52.578;13.426;2022-07-23T12:43:09;24.70;95.00
4757;DHT22;2392;52.578;13.426;2022-07-23T12:45:45;24.60;95.20
4757;DHT22;2392;52.578;13.426;2022-07-23T12:48:16;24.60;95.70
4757;DHT22;2392;52.578;13.426;2022-07-23T12:50:49;24.60;96.10
4757;DHT22;2392;52.578;13.426;2022-07-23T12:53:18;24.70;95.40
4757;DHT22;2392;52.578;13.426;2022-07-23T12:55:48;24.80;94.90
4757;DHT22;2392;52.578;13.426;2022-07-23T12:58:16;24.80;95.20
4757;DHT22;2392;52.578;13.426;2022-07-23T13:00:55;24.90;95.60
4757;DHT22;2392;52.578;13.426;2022-07-23T13:03:24;25.00;94.80
4757;DHT22;2392;52.578;13.426;2022-07-23T13:05:53;25.20;94.70
4757;DHT22;2392;52.578;13.426;2022-07-23T13:08:20;25.30;94.40
4757;DHT22;2392;52.578;13.426;2022-07-23T13:10:48;25.10;94.40
4757;DHT22;2392;52.578;13.426;2022-07-23T13:13:17;24.80;95.00
4757;DHT22;2392;52.578;13.426;2022-07-23T13:15:46;24.60;95.10
4757;DHT22;2392;52.578;13.426;2022-07-23T13:18:14;24.70;95.20
4757;DHT22;2392;52.578;13.426;2022-07-23T13:20:42;24.80;95.10
4757;DHT22;2392;52.578;13.426;2022-07-23T13:23:09;24.90;95.50
4757;DHT22;2392;52.578;13.426;2022-07-23T13:25:36;24.90;94.80
4757;DHT22;2392;52.578;13.426;2022-07-23T13:28:05;24.90;94.60
4757;DHT22;2392;52.578;13.426;2022-07-23T13:30:32;24.80;94.60
4757;DHT22;2392;52.578;13.426;2022-07-23T13:32:59;24.60;95.00
4757;DHT22;2392;52.578;13.426;2022-07-23T13:35:26;24.50;95.00
4757;DHT22;2392;52.578;13.426;2022-07-23T13:37:53;24.50;95.10
4757;DHT22;2392;52.578;13.426;2022-07-23T13:40:20;24.50;94.60
4757;DHT22;2392;52.578;13.426;2022-07-23T13:42:47;24.40;94.60
4757;DHT22;2392;52.578;13.426;2022-07-23T13:45:15;24.30;95.00
4757;DHT22;2392;52.578;13.426;2022-07-23T13:47:42;24.40;94.90
4757;DHT22;2392;52.578;13.426;2022-07-23T13:50:09;24.40;94.70
4757;DHT22;2392;52.578;13.426;2022-07-23T13:52:36;24.50;94.80
4757;DHT22;2392;52.578;13.426;2022-07-23T13:55:04;24.60;94.50
4757;DHT22;2392;52.578;13.426;2022-07-23T13:57:32;24.80;94.20
4757;DHT22;2392;52.578;13.426;2022-07-23T13:59:59;24.90;94.20
4757;DHT22;2392;52.578;13.426;2022-07-23T14:02:27;24.90;94.40
4757;DHT22;2392;52.578;13.426;2022-07-23T14:04:54;25.00;94.40
4757;DHT22;2392;52.578;13.426;2022-07-23T14:07:22;25.10;94.20
4757;DHT22;2392;52.578;13.426;2022-07-23T14:09:50;25.20;93.20
4757;DHT22;2392;52.578;13.426;2022-07-23T14:12:17;25.10;93.30
4757;DHT22;2392;52.578;13.426;2022-07-23T14:14:44;25.10;93.70
4757;DHT22;2392;52.578;13.426;2022-07-23T14:17:13;25.00;93.20
4757;DHT22;2392;52.578;13.426;2022-07-23T14:19:41;24.80;93.40
4757;DHT22;2392;52.578;13.426;2022-07-23T14:22:08;25.00;93.50
4757;DHT22;2392;52.578;13.426;2022-07-23T14:24:35;25.30;93.30
4757;DHT22;2392;52.578;13.426;2022-07-23T14:27:03;25.60;92.80
4757;DHT22;2392;52.578;13.426;2022-07-23T14:29:31;25.60;92.20
4757;DHT22;2392;52.578;13.426;2022-07-23T14:31:59;25.60;92.30
4757;DHT22;2392;52.578;13.426;2022-07-23T14:34:26;25.40;92.60
4757;DHT22;2392;52.578;13.426;2022-07-23T14:36:54;25.20;92.40
4757;DHT22;2392;52.578;13.426;2022-07-23T14:39:21;25.10;92.80
4757;DHT22;2392;52.578;13.426;2022-07-23T14:41:48;25.00;92.70
4757;DHT22;2392;52.578;13.426;2022-07-23T14:44:15;24.90;93.20
4757;DHT22;2392;52.578;13.426;2022-07-23T14:46:42;24.90;92.90
4757;DHT22;2392;52.578;13.426;2022-07-23T14:49:10;24.90;92.50
4757;DHT22;2392;52.578;13.426;2022-07-23T14:51:37;24.90;92.70
4757;DHT22;2392;52.578;13.426;2022-07-23T14:54:05;24.80;92.90
4757;DHT22;2392;52.578;13.426;2022-07-23T14:56:32;24.80;92.30
4757;DHT22;2392;52.578;13.426;2022-07-23T14:59:02;25.00;92.70
4757;DHT22;2392;52.578;13.426;2022-07-23T15:01:29;25.10;91.90
4757;DHT22;2392;52.578;13.426;2022-07-23T15:03:56;25.10;91.60
4757;DHT22;2392;52.578;13.426;2022-07-23T15:06:24;25.10;91.40
4757;DHT22;2392;52.578;13.426;2022-07-23T15:08:51;25.20;92.10
4757;DHT22;2392;52.578;13.426;2022-07-23T15:11:20;25.30;91.20
4757;DHT22;2392;52.578;13.426;2022-07-23T15:13:47;25.30;91.00
4757;DHT22;2392;52.578;13.426;2022-07-23T15:16:14;25.20;90.90
4757;DHT22;2392;52.578;13.426;2022-07-23T15:18:41;25.20;91.10
4757;DHT22;2392;52.578;13.426;2022-07-23T15:21:08;25.10;91.10
4757;DHT22;2392;52.578;13.426;2022-07-23T15:23:35;24.80;90.90
4757;DHT22;2392;52.578;13.426;2022-07-23T15:26:05;24.70;92.10
4757;DHT22;2392;52.578;13.426;2022-07-23T15:28:35;24.70;91.50
4757;DHT22;2392;52.578;13.426;2022-07-23T15:31:03;24.70;90.80
4757;DHT22;2392;52.578;13.426;2022-07-23T15:33:30;24.70;90.80
4757;DHT22;2392;52.578;13.426;2022-07-23T15:35:57;24.60;90.60
4757;DHT22;2392;52.578;13.426;2022-07-23T15:38:25;24.60;90.50
4757;DHT22;2392;52.578;13.426;2022-07-23T15:40:53;24.50;90.60
4757;DHT22;2392;52.578;13.426;2022-07-23T15:43:20;24.50;91.20
4757;DHT22;2392;52.578;13.426;2022-07-23T15:45:49;24.60;90.80
4757;DHT22;2392;52.578;13.426;2022-07-23T15:48:17;24.70;90.80
4757;DHT22;2392;52.578;13.426;2022-07-23T15:50:45;24.90;90.00
4757;DHT22;2392;52.578;13.426;2022-07-23T15:53:12;25.00;89.90
4757;DHT22;2392;52.578;13.426;2022-07-23T15:55:39;25.10;89.80
4757;DHT22;2392;52.578;13.426;2022-07-23T15:58:10;25.10;90.20
4757;DHT22;2392;52.578;13.426;2022-07-23T16:00:37;25.10;87.80
4757;DHT22;2392;52.578;13.426;2022-07-23T16:03:06;25.10;88.10
4757;DHT22;2392;52.578;13.426;2022-07-23T16:05:33;25.00;88.60